sensor_id;sensor_type;location;lat;lon;timestamp;P1;durP1;ratioP1;P2;durP2;ratioP2
20559;SDS011;10438;51.454;6.718;2022-09-06T00:00:06;8.93;;;3.20;;
20559;SDS011;10438;51.454;6.718;2022-09-06T00:02:35;8.18;;;2.90;;
20559;SDS011;10438;51.454;6.718;2022-09-06T00:05:01;7.93;;;2.78;;
20559;SDS011;10438;51.454;6.718;2022-09-06T00:07:27;10.15;;;2.90;;
20559;SDS011;10438;51.454;6.718;2022-09-06T00:09:52;11.55;;;3.05;;
20559;SDS011;10438;51.454;6.718;2022-09-06T00:12:18;8.88;;;2.72;;
20559;SDS011;10438;51.454;6.718;2022-09-06T00:14:44;9.00;;;2.58;;
20559;SDS011;10438;51.454;6.718;2022-09-06T00:17:10;7.97;;;2.30;;
20559;SDS011;10438;51.454;6.718;2022-09-06T00:19:35;9.82;;;2.70;;
20559;SDS011;10438;51.454;6.718;2022-09-06T00:22:01;7.00;;;2.50;;
20559;SDS011;10438;51.454;6.718;2022-09-06T00:24:26;8.45;;;2.42;;
20559;SDS011;10438;51.454;6.718;2022-09-06T00:26:52;6.90;;;2.60;;
20559;SDS011;10438;51.454;6.718;2022-09-06T00:29:17;7.97;;;2.55;;
20559;SDS011;10438;51.454;6.718;2022-09-06T00:31:43;8.07;;;2.53;;
20559;SDS011;10438;51.454;6.718;2022-09-06T00:34:09;6.20;;;2.33;;
20559;SDS011;10438;51.454;6.718;2022-09-06T00:36:34;6.13;;;2.17;;
20559;SDS011;10438;51.454;6.718;2022-09-06T00:39:00;6.82;;;2.40;;
20559;SDS011;10438;51.454;6.718;2022-09-06T00:41:25;6.95;;;2.55;;
20559;SDS011;10438;51.454;6.718;2022-09-06T00:43:51;5.25;;;2.22;;
20559;SDS011;10438;51.454;6.718;2022-09-06T00:46:18;6.60;;;2.60;;
20559;SDS011;10438;51.454;6.718;2022-09-06T00:48:47;5.55;;;2.10;;
20559;SDS011;10438;51.454;6.718;2022-09-06T00:51:15;7.05;;;2.47;;
20559;SDS011;10438;51.454;6.718;2022-09-06T00:53:42;7.38;;;2.40;;
20559;SDS011;10438;51.454;6.718;2022-09-06T00:56:08;5.70;;;2.35;;
20559;SDS011;10438;51.454;6.718;2022-09-06T00:58:34;6.05;;;2.35;;
20559;SDS011;10438;51.454;6.718;2022-09-06T01:01:00;7.97;;;2.53;;
20559;SDS011;10438;51.454;6.718;2022-09-06T01:03:26;9.63;;;2.42;;
20559;SDS011;10438;51.454;6.718;2022-09-06T01:17:42;7.70;;;2.05;;
20559;SDS011;10438;51.454;6.718;2022-09-06T01:19:56;6.65;;;2.20;;
20559;SDS011;10438;51.454;6.718;2022-09-06T01:23:01;6.10;;;2.13;;
20559;SDS011;10438;51.454;6.718;2022-09-06T01:28:26;5.47;;;2.33;;
20559;SDS011;10438;51.454;6.718;2022-09-06T01:31:10;7.88;;;2.25;;
20559;SDS011;10438;51.454;6.718;2022-09-06T01:36:40;9.88;;;2.38;;
20559;SDS011;10438;51.454;6.718;2022-09-06T01:39:13;8.05;;;2.30;;
20559;SDS011;10438;51.454;6.718;2022-09-06T01:41:48;3.78;;;1.90;;
20559;SDS011;10438;51.454;6.718;2022-09-06T01:44:15;6.43;;;2.88;;
20559;SDS011;10438;51.454;6.718;2022-09-06T01:46:45;7.45;;;2.08;;
20559;SDS011;10438;51.454;6.718;2022-09-06T01:49:26;6.40;;;2.40;;
20559;SDS011;10438;51.454;6.718;2022-09-06T02:00:08;4.38;;;1.80;;
20559;SDS011;10438;51.454;6.718;2022-09-06T02:02:41;9.07;;;2.55;;
20559;SDS011;10438;51.454;6.718;2022-09-06T02:07:49;4.53;;;2.40;;
20559;SDS011;10438;51.454;6.718;2022-09-06T02:10:22;6.07;;;2.75;;
20559;SDS011;10438;51.454;6.718;2022-09-06T02:12:52;5.70;;;2.80;;
20559;SDS011;10438;51.454;6.718;2022-09-06T02:17:59;10.23;;;2.88;;
20559;SDS011;10438;51.454;6.718;2022-09-06T02:20:37;4.97;;;2.60;;
20559;SDS011;10438;51.454;6.718;2022-09-06T02:23:07;6.35;;;2.60;;
20559;SDS011;10438;51.454;6.718;2022-09-06T02:25:37;8.52;;;2.75;;
20559;SDS011;10438;51.454;6.718;2022-09-06T02:28:09;4.75;;;2.55;;
20559;SDS011;10438;51.454;6.718;2022-09-06T02:30:37;6.97;;;3.00;;
20559;SDS011;10438;51.454;6.718;2022-09-06T02:33:06;8.60;;;2.88;;
20559;SDS011;10438;51.454;6.718;2022-09-06T02:35:47;6.25;;;2.67;;
20559;SDS011;10438;51.454;6.718;2022-09-06T02:38:16;5.70;;;2.80;;
20559;SDS011;10438;51.454;6.718;2022-09-06T02:40:44;6.95;;;2.75;;
20559;SDS011;10438;51.454;6.718;2022-09-06T02:43:11;6.93;;;2.92;;
20559;SDS011;10438;51.454;6.718;2022-09-06T02:45:37;5.18;;;2.92;;
20559;SDS011;10438;51.454;6.718;2022-09-06T02:48:03;8.65;;;2.97;;
20559;SDS011;10438;51.454;6.718;2022-09-06T02:50:28;6.80;;;3.28;;
20559;SDS011;10438;51.454;6.718;2022-09-06T02:53:07;4.75;;;3.00;;
20559;SDS011;10438;51.454;6.718;2022-09-06T02:55:35;5.95;;;2.47;;
20559;SDS011;10438;51.454;6.718;2022-09-06T02:58:02;9.55;;;2.60;;
20559;SDS011;10438;51.454;6.718;2022-09-06T03:00:28;6.75;;;2.50;;
20559;SDS011;10438;51.454;6.718;2022-09-06T03:02:54;5.35;;;2.90;;
20559;SDS011;10438;51.454;6.718;2022-09-06T03:05:26;5.25;;;2.50;;
20559;SDS011;10438;51.454;6.718;2022-09-06T03:07:52;6.22;;;2.78;;
20559;SDS011;10438;51.454;6.718;2022-09-06T03:10:18;8.63;;;2.67;;
20559;SDS011;10438;51.454;6.718;2022-09-06T03:12:45;5.43;;;2.75;;
20559;SDS011;10438;51.454;6.718;2022-09-06T03:15:11;8.98;;;2.58;;
20559;SDS011;10438;51.454;6.718;2022-09-06T03:17:38;6.25;;;2.78;;
20559;SDS011;10438;51.454;6.718;2022-09-06T03:20:04;6.18;;;2.55;;
20559;SDS011;10438;51.454;6.718;2022-09-06T03:22:30;6.60;;;2.78;;
20559;SDS011;10438;51.454;6.718;2022-09-06T03:24:56;6.68;;;2.90;;
20559;SDS011;10438;51.454;6.718;2022-09-06T03:27:22;5.95;;;2.78;;
20559;SDS011;10438;51.454;6.718;2022-09-06T03:29:48;8.68;;;2.92;;
20559;SDS011;10438;51.454;6.718;2022-09-06T03:32:13;8.05;;;3.10;;
20559;SDS011;10438;51.454;6.718;2022-09-06T03:34:39;7.00;;;2.88;;
20559;SDS011;10438;51.454;6.718;2022-09-06T03:37:05;8.65;;;3.38;;
20559;SDS011;10438;51.454;6.718;2022-09-06T03:39:30;7.93;;;3.55;;
20559;SDS011;10438;51.454;6.718;2022-09-06T03:41:56;7.90;;;3.70;;
20559;SDS011;10438;51.454;6.718;2022-09-06T03:44:21;12.98;;;3.90;;
20559;SDS011;10438;51.454;6.718;2022-09-06T03:46:48;9.05;;;3.72;;
20559;SDS011;10438;51.454;6.718;2022-09-06T03:49:15;5.93;;;3.08;;
20559;SDS011;10438;51.454;6.718;2022-09-06T03:51:40;11.90;;;3.60;;
20559;SDS011;10438;51.454;6.718;2022-09-06T03:54:06;14.43;;;4.28;;
20559;SDS011;10438;51.454;6.718;2022-09-06T03:56:31;9.88;;;4.20;;
20559;SDS011;10438;51.454;6.718;2022-09-06T03:58:57;9.27;;;4.82;;
20559;SDS011;10438;51.454;6.718;2022-09-06T04:01:23;8.88;;;4.38;;
20559;SDS011;10438;51.454;6.718;2022-09-06T04:03:49;9.90;;;4.22;;
20559;SDS011;10438;51.454;6.718;2022-09-06T04:06:14;8.10;;;4.22;;
20559;SDS011;10438;51.454;6.718;2022-09-06T04:08:40;7.53;;;3.72;;
20559;SDS011;10438;51.454;6.718;2022-09-06T04:11:05;9.60;;;3.83;;
20559;SDS011;10438;51.454;6.718;2022-09-06T04:13:31;7.60;;;4.28;;
20559;SDS011;10438;51.454;6.718;2022-09-06T04:15:58;8.77;;;4.63;;
20559;SDS011;10438;51.454;6.718;2022-09-06T04:18:24;8.00;;;4.68;;
20559;SDS011;10438;51.454;6.718;2022-09-06T04:20:50;7.95;;;4.35;;
20559;SDS011;10438;51.454;6.718;2022-09-06T04:23:18;9.45;;;4.70;;
20559;SDS011;10438;51.454;6.718;2022-09-06T04:25:45;7.32;;;3.83;;
20559;SDS011;10438;51.454;6.718;2022-09-06T04:28:14;8.95;;;4.30;;
20559;SDS011;10438;51.454;6.718;2022-09-06T04:30:42;6.78;;;3.85;;
20559;SDS011;10438;51.454;6.718;2022-09-06T04:33:08;11.07;;;4.32;;
20559;SDS011;10438;51.454;6.718;2022-09-06T04:35:34;11.68;;;5.18;;
20559;SDS011;10438;51.454;6.718;2022-09-06T04:38:00;15.95;;;5.50;;
20559;SDS011;10438;51.454;6.718;2022-09-06T04:40:26;11.23;;;4.82;;
20559;SDS011;10438;51.454;6.718;2022-09-06T04:42:51;7.65;;;4.60;;
20559;SDS011;10438;51.454;6.718;2022-09-06T04:45:17;10.25;;;4.90;;
20559;SDS011;10438;51.454;6.718;2022-09-06T04:47:42;7.63;;;4.55;;
20559;SDS011;10438;51.454;6.718;2022-09-06T04:50:08;10.18;;;4.70;;
20559;SDS011;10438;51.454;6.718;2022-09-06T04:52:34;8.88;;;4.40;;
20559;SDS011;10438;51.454;6.718;2022-09-06T04:54:59;8.00;;;4.30;;
20559;SDS011;10438;51.454;6.718;2022-09-06T04:57:25;14.60;;;4.97;;
20559;SDS011;10438;51.454;6.718;2022-09-06T04:59:50;11.23;;;4.68;;
20559;SDS011;10438;51.454;6.718;2022-09-06T05:02:16;9.27;;;4.40;;
20559;SDS011;10438;51.454;6.718;2022-09-06T05:04:41;8.10;;;4.35;;
20559;SDS011;10438;51.454;6.718;2022-09-06T05:07:07;9.68;;;4.78;;
20559;SDS011;10438;51.454;6.718;2022-09-06T05:09:33;7.57;;;4.47;;
20559;SDS011;10438;51.454;6.718;2022-09-06T05:11:59;9.80;;;4.68;;
20559;SDS011;10438;51.454;6.718;2022-09-06T05:14:26;8.32;;;4.13;;
20559;SDS011;10438;51.454;6.718;2022-09-06T05:16:52;8.25;;;4.50;;
20559;SDS011;10438;51.454;6.718;2022-09-06T05:19:18;11.30;;;4.93;;
20559;SDS011;10438;51.454;6.718;2022-09-06T05:21:44;8.55;;;4.47;;
20559;SDS011;10438;51.454;6.718;2022-09-06T05:24:09;8.70;;;4.78;;
20559;SDS011;10438;51.454;6.718;2022-09-06T05:26:35;11.93;;;4.90;;
20559;SDS011;10438;51.454;6.718;2022-09-06T05:29:01;9.82;;;4.68;;
20559;SDS011;10438;51.454;6.718;2022-09-06T05:31:27;14.50;;;5.20;;
20559;SDS011;10438;51.454;6.718;2022-09-06T05:33:54;13.75;;;5.47;;
20559;SDS011;10438;51.454;6.718;2022-09-06T05:36:21;10.02;;;4.88;;
20559;SDS011;10438;51.454;6.718;2022-09-06T05:38:51;8.88;;;4.75;;
20559;SDS011;10438;51.454;6.718;2022-09-06T05:41:17;11.20;;;4.88;;
20559;SDS011;10438;51.454;6.718;2022-09-06T05:43:44;9.73;;;4.72;;
20559;SDS011;10438;51.454;6.718;2022-09-06T05:46:10;10.02;;;5.00;;
20559;SDS011;10438;51.454;6.718;2022-09-06T05:48:36;11.32;;;5.40;;
20559;SDS011;10438;51.454;6.718;2022-09-06T05:51:03;9.45;;;4.95;;
20559;SDS011;10438;51.454;6.718;2022-09-06T05:53:34;12.98;;;5.22;;
20559;SDS011;10438;51.454;6.718;2022-09-06T05:56:02;17.33;;;5.45;;
20559;SDS011;10438;51.454;6.718;2022-09-06T05:58:28;13.00;;;5.95;;
20559;SDS011;10438;51.454;6.718;2022-09-06T06:01:03;9.85;;;6.38;;
20559;SDS011;10438;51.454;6.718;2022-09-06T06:03:38;11.40;;;5.57;;
20559;SDS011;10438;51.454;6.718;2022-09-06T06:06:03;14.40;;;5.93;;
20559;SDS011;10438;51.454;6.718;2022-09-06T06:08:29;14.13;;;6.53;;
20559;SDS011;10438;51.454;6.718;2022-09-06T06:10:58;8.43;;;5.10;;
20559;SDS011;10438;51.454;6.718;2022-09-06T06:13:25;11.00;;;6.07;;
20559;SDS011;10438;51.454;6.718;2022-09-06T06:15:51;10.20;;;5.22;;
20559;SDS011;10438;51.454;6.718;2022-09-06T06:18:17;9.75;;;6.03;;
20559;SDS011;10438;51.454;6.718;2022-09-06T06:20:42;12.77;;;5.32;;
20559;SDS011;10438;51.454;6.718;2022-09-06T06:23:08;13.80;;;5.30;;
20559;SDS011;10438;51.454;6.718;2022-09-06T06:25:33;7.93;;;4.90;;
20559;SDS011;10438;51.454;6.718;2022-09-06T06:27:59;9.98;;;5.05;;
20559;SDS011;10438;51.454;6.718;2022-09-06T06:30:24;10.05;;;5.50;;
20559;SDS011;10438;51.454;6.718;2022-09-06T06:32:50;12.82;;;5.78;;
20559;SDS011;10438;51.454;6.718;2022-09-06T06:35:15;11.73;;;5.88;;
20559;SDS011;10438;51.454;6.718;2022-09-06T06:37:41;9.93;;;5.68;;
20559;SDS011;10438;51.454;6.718;2022-09-06T06:40:08;11.48;;;5.82;;
20559;SDS011;10438;51.454;6.718;2022-09-06T06:42:34;8.63;;;5.18;;
20559;SDS011;10438;51.454;6.718;2022-09-06T06:44:59;9.88;;;5.25;;
20559;SDS011;10438;51.454;6.718;2022-09-06T06:47:25;11.90;;;5.45;;
20559;SDS011;10438;51.454;6.718;2022-09-06T06:49:50;11.70;;;5.25;;
20559;SDS011;10438;51.454;6.718;2022-09-06T06:52:16;22.48;;;5.35;;
20559;SDS011;10438;51.454;6.718;2022-09-06T06:54:42;10.05;;;5.80;;
20559;SDS011;10438;51.454;6.718;2022-09-06T06:57:07;10.73;;;5.45;;
20559;SDS011;10438;51.454;6.718;2022-09-06T06:59:33;9.20;;;5.20;;
20559;SDS011;10438;51.454;6.718;2022-09-06T07:01:59;8.68;;;4.95;;
20559;SDS011;10438;51.454;6.718;2022-09-06T07:04:24;11.90;;;4.80;;
20559;SDS011;10438;51.454;6.718;2022-09-06T07:06:51;11.45;;;4.82;;
20559;SDS011;10438;51.454;6.718;2022-09-06T07:09:18;12.40;;;5.18;;
20559;SDS011;10438;51.454;6.718;2022-09-06T07:11:45;14.65;;;5.25;;
20559;SDS011;10438;51.454;6.718;2022-09-06T07:14:12;12.20;;;4.50;;
20559;SDS011;10438;51.454;6.718;2022-09-06T07:16:38;9.43;;;4.20;;
20559;SDS011;10438;51.454;6.718;2022-09-06T07:19:04;8.57;;;4.25;;
20559;SDS011;10438;51.454;6.718;2022-09-06T07:21:30;10.25;;;4.45;;
20559;SDS011;10438;51.454;6.718;2022-09-06T07:23:55;11.45;;;4.00;;
20559;SDS011;10438;51.454;6.718;2022-09-06T07:26:22;11.95;;;3.58;;
20559;SDS011;10438;51.454;6.718;2022-09-06T07:28:53;9.38;;;3.80;;
20559;SDS011;10438;51.454;6.718;2022-09-06T07:31:19;7.80;;;3.20;;
20559;SDS011;10438;51.454;6.718;2022-09-06T07:33:45;8.30;;;3.50;;
20559;SDS011;10438;51.454;6.718;2022-09-06T07:36:11;7.05;;;3.40;;
20559;SDS011;10438;51.454;6.718;2022-09-06T07:38:37;8.35;;;3.55;;
20559;SDS011;10438;51.454;6.718;2022-09-06T07:41:06;6.40;;;3.10;;
20559;SDS011;10438;51.454;6.718;2022-09-06T07:43:33;7.13;;;2.72;;
20559;SDS011;10438;51.454;6.718;2022-09-06T07:46:00;9.05;;;3.03;;
20559;SDS011;10438;51.454;6.718;2022-09-06T07:48:31;7.13;;;2.70;;
20559;SDS011;10438;51.454;6.718;2022-09-06T07:51:02;5.55;;;2.30;;
20559;SDS011;10438;51.454;6.718;2022-09-06T07:53:29;6.00;;;2.85;;
20559;SDS011;10438;51.454;6.718;2022-09-06T07:55:55;9.23;;;3.00;;
20559;SDS011;10438;51.454;6.718;2022-09-06T07:58:20;5.57;;;2.95;;
20559;SDS011;10438;51.454;6.718;2022-09-06T08:00:46;7.38;;;2.67;;
20559;SDS011;10438;51.454;6.718;2022-09-06T08:03:12;4.97;;;2.55;;
20559;SDS011;10438;51.454;6.718;2022-09-06T08:05:38;6.40;;;2.13;;
20559;SDS011;10438;51.454;6.718;2022-09-06T08:08:03;8.88;;;2.30;;
20559;SDS011;10438;51.454;6.718;2022-09-06T08:10:29;8.35;;;2.08;;
20559;SDS011;10438;51.454;6.718;2022-09-06T08:12:54;4.57;;;2.15;;
20559;SDS011;10438;51.454;6.718;2022-09-06T08:15:20;4.60;;;2.00;;
20559;SDS011;10438;51.454;6.718;2022-09-06T08:17:47;9.52;;;2.47;;
20559;SDS011;10438;51.454;6.718;2022-09-06T08:20:13;6.40;;;2.50;;
20559;SDS011;10438;51.454;6.718;2022-09-06T08:22:39;7.25;;;2.50;;
20559;SDS011;10438;51.454;6.718;2022-09-06T08:25:04;6.60;;;2.92;;
20559;SDS011;10438;51.454;6.718;2022-09-06T08:27:31;6.90;;;2.92;;
20559;SDS011;10438;51.454;6.718;2022-09-06T08:29:57;7.13;;;3.00;;
20559;SDS011;10438;51.454;6.718;2022-09-06T08:32:23;13.85;;;2.97;;
20559;SDS011;10438;51.454;6.718;2022-09-06T08:34:48;7.38;;;2.65;;
20559;SDS011;10438;51.454;6.718;2022-09-06T08:37:14;14.13;;;2.97;;
20559;SDS011;10438;51.454;6.718;2022-09-06T08:39:40;8.40;;;3.30;;
20559;SDS011;10438;51.454;6.718;2022-09-06T08:42:06;6.47;;;2.80;;
20559;SDS011;10438;51.454;6.718;2022-09-06T08:49:37;10.95;;;2.75;;
20559;SDS011;10438;51.454;6.718;2022-09-06T09:00:35;9.88;;;2.42;;
20559;SDS011;10438;51.454;6.718;2022-09-06T09:05:33;12.68;;;3.22;;
20559;SDS011;10438;51.454;6.718;2022-09-06T09:08:11;10.23;;;4.75;;
20559;SDS011;10438;51.454;6.718;2022-09-06T09:11:03;14.05;;;7.32;;
20559;SDS011;10438;51.454;6.718;2022-09-06T09:13:33;11.52;;;5.53;;
20559;SDS011;10438;51.454;6.718;2022-09-06T09:16:20;10.07;;;3.60;;
20559;SDS011;10438;51.454;6.718;2022-09-06T09:18:56;6.95;;;2.65;;
20559;SDS011;10438;51.454;6.718;2022-09-06T09:21:24;7.50;;;2.08;;
20559;SDS011;10438;51.454;6.718;2022-09-06T09:23:54;9.85;;;3.28;;
20559;SDS011;10438;51.454;6.718;2022-09-06T09:26:23;8.38;;;2.55;;
20559;SDS011;10438;51.454;6.718;2022-09-06T09:29:03;9.68;;;2.42;;
20559;SDS011;10438;51.454;6.718;2022-09-06T09:34:04;7.18;;;3.97;;
20559;SDS011;10438;51.454;6.718;2022-09-06T09:36:34;7.63;;;2.50;;
20559;SDS011;10438;51.454;6.718;2022-09-06T09:39:00;6.63;;;2.00;;
20559;SDS011;10438;51.454;6.718;2022-09-06T09:41:33;9.75;;;2.00;;
20559;SDS011;10438;51.454;6.718;2022-09-06T09:44:03;5.25;;;1.88;;
20559;SDS011;10438;51.454;6.718;2022-09-06T09:46:33;7.10;;;1.70;;
20559;SDS011;10438;51.454;6.718;2022-09-06T09:49:14;3.85;;;1.50;;
20559;SDS011;10438;51.454;6.718;2022-09-06T09:52:08;5.30;;;2.10;;
20559;SDS011;10438;51.454;6.718;2022-09-06T09:54:36;9.48;;;2.05;;
20559;SDS011;10438;51.454;6.718;2022-09-06T09:57:07;9.30;;;1.83;;
20559;SDS011;10438;51.454;6.718;2022-09-06T09:59:37;4.32;;;1.60;;
20559;SDS011;10438;51.454;6.718;2022-09-06T10:02:15;7.65;;;1.67;;
20559;SDS011;10438;51.454;6.718;2022-09-06T10:04:45;7.05;;;2.03;;
20559;SDS011;10438;51.454;6.718;2022-09-06T10:07:20;3.97;;;1.90;;
20559;SDS011;10438;51.454;6.718;2022-09-06T10:09:57;9.07;;;1.92;;
20559;SDS011;10438;51.454;6.718;2022-09-06T10:14:59;5.38;;;1.80;;
20559;SDS011;10438;51.454;6.718;2022-09-06T10:19:54;4.80;;;1.52;;
20559;SDS011;10438;51.454;6.718;2022-09-06T10:22:28;5.35;;;2.08;;
20559;SDS011;10438;51.454;6.718;2022-09-06T10:30:28;3.78;;;1.70;;
20559;SDS011;10438;51.454;6.718;2022-09-06T10:35:30;4.05;;;1.15;;
20559;SDS011;10438;51.454;6.718;2022-09-06T10:43:49;3.63;;;1.67;;
20559;SDS011;10438;51.454;6.718;2022-09-06T10:46:33;7.25;;;1.92;;
20559;SDS011;10438;51.454;6.718;2022-09-06T10:49:00;4.43;;;1.60;;
20559;SDS011;10438;51.454;6.718;2022-09-06T10:51:33;4.10;;;1.50;;
20559;SDS011;10438;51.454;6.718;2022-09-06T10:54:04;4.30;;;1.42;;
20559;SDS011;10438;51.454;6.718;2022-09-06T11:04:35;4.25;;;1.35;;
20559;SDS011;10438;51.454;6.718;2022-09-06T11:07:24;3.88;;;1.67;;
20559;SDS011;10438;51.454;6.718;2022-09-06T11:09:56;7.85;;;2.00;;
20559;SDS011;10438;51.454;6.718;2022-09-06T11:15:43;6.38;;;1.67;;
20559;SDS011;10438;51.454;6.718;2022-09-06T11:18:38;7.40;;;1.90;;
20559;SDS011;10438;51.454;6.718;2022-09-06T11:21:16;4.50;;;1.45;;
20559;SDS011;10438;51.454;6.718;2022-09-06T11:23:52;3.42;;;1.50;;
20559;SDS011;10438;51.454;6.718;2022-09-06T11:27:20;7.88;;;1.88;;
20559;SDS011;10438;51.454;6.718;2022-09-06T11:29:54;5.25;;;1.23;;
20559;SDS011;10438;51.454;6.718;2022-09-06T11:34:57;4.22;;;1.60;;
20559;SDS011;10438;51.454;6.718;2022-09-06T11:37:28;4.63;;;1.30;;
20559;SDS011;10438;51.454;6.718;2022-09-06T11:53:24;6.00;;;1.67;;
20559;SDS011;10438;51.454;6.718;2022-09-06T11:58:42;7.68;;;1.90;;
20559;SDS011;10438;51.454;6.718;2022-09-06T12:08:41;5.38;;;2.10;;
20559;SDS011;10438;51.454;6.718;2022-09-06T12:13:58;3.85;;;1.65;;
20559;SDS011;10438;51.454;6.718;2022-09-06T12:19:50;5.13;;;1.70;;
20559;SDS011;10438;51.454;6.718;2022-09-06T12:25:00;9.98;;;1.92;;
20559;SDS011;10438;51.454;6.718;2022-09-06T12:27:57;3.75;;;1.73;;
20559;SDS011;10438;51.454;6.718;2022-09-06T12:30:46;9.07;;;1.90;;
20559;SDS011;10438;51.454;6.718;2022-09-06T12:35:48;7.72;;;1.80;;
20559;SDS011;10438;51.454;6.718;2022-09-06T12:38:14;8.52;;;2.28;;
20559;SDS011;10438;51.454;6.718;2022-09-06T12:40:44;5.90;;;2.00;;
20559;SDS011;10438;51.454;6.718;2022-09-06T12:43:13;5.45;;;1.90;;
20559;SDS011;10438;51.454;6.718;2022-09-06T12:45:41;5.15;;;2.10;;
20559;SDS011;10438;51.454;6.718;2022-09-06T12:48:57;6.85;;;1.90;;
20559;SDS011;10438;51.454;6.718;2022-09-06T12:51:00;6.72;;;1.90;;
20559;SDS011;10438;51.454;6.718;2022-09-06T12:53:26;4.88;;;1.55;;
20559;SDS011;10438;51.454;6.718;2022-09-06T12:56:05;2.88;;;1.50;;
20559;SDS011;10438;51.454;6.718;2022-09-06T12:58:33;6.93;;;1.60;;
20559;SDS011;10438;51.454;6.718;2022-09-06T13:01:04;4.13;;;1.60;;
20559;SDS011;10438;51.454;6.718;2022-09-06T13:03:43;4.63;;;1.60;;
20559;SDS011;10438;51.454;6.718;2022-09-06T13:06:17;5.72;;;1.80;;
20559;SDS011;10438;51.454;6.718;2022-09-06T13:08:46;4.88;;;1.70;;
20559;SDS011;10438;51.454;6.718;2022-09-06T13:11:19;5.10;;;1.42;;
20559;SDS011;10438;51.454;6.718;2022-09-06T13:13:50;4.65;;;2.03;;
20559;SDS011;10438;51.454;6.718;2022-09-06T13:16:21;5.40;;;1.70;;
20559;SDS011;10438;51.454;6.718;2022-09-06T13:18:49;8.80;;;1.45;;
20559;SDS011;10438;51.454;6.718;2022-09-06T13:21:25;5.50;;;1.92;;
20559;SDS011;10438;51.454;6.718;2022-09-06T13:23:55;5.93;;;2.03;;
20559;SDS011;10438;51.454;6.718;2022-09-06T13:26:33;4.53;;;1.58;;
20559;SDS011;10438;51.454;6.718;2022-09-06T13:31:57;7.03;;;1.60;;
20559;SDS011;10438;51.454;6.718;2022-09-06T13:34:28;3.72;;;1.45;;
20559;SDS011;10438;51.454;6.718;2022-09-06T13:37:00;5.30;;;1.85;;
20559;SDS011;10438;51.454;6.718;2022-09-06T13:39:28;5.45;;;1.40;;
20559;SDS011;10438;51.454;6.718;2022-09-06T13:41:59;5.55;;;1.50;;
20559;SDS011;10438;51.454;6.718;2022-09-06T13:44:39;2.70;;;1.48;;
20559;SDS011;10438;51.454;6.718;2022-09-06T13:47:04;5.07;;;1.20;;
20559;SDS011;10438;51.454;6.718;2022-09-06T13:49:30;9.23;;;4.97;;
20559;SDS011;10438;51.454;6.718;2022-09-06T13:52:00;4.85;;;1.80;;
20559;SDS011;10438;51.454;6.718;2022-09-06T13:54:28;4.75;;;1.77;;
20559;SDS011;10438;51.454;6.718;2022-09-06T13:56:54;5.18;;;1.75;;
20559;SDS011;10438;51.454;6.718;2022-09-06T13:59:21;10.50;;;1.50;;
20559;SDS011;10438;51.454;6.718;2022-09-06T14:01:48;3.88;;;1.50;;
20559;SDS011;10438;51.454;6.718;2022-09-06T14:04:25;6.65;;;1.50;;
20559;SDS011;10438;51.454;6.718;2022-09-06T14:06:52;5.07;;;1.33;;
20559;SDS011;10438;51.454;6.718;2022-09-06T14:09:18;3.65;;;1.30;;
20559;SDS011;10438;51.454;6.718;2022-09-06T14:11:44;8.50;;;1.50;;
20559;SDS011;10438;51.454;6.718;2022-09-06T14:14:09;6.03;;;1.60;;
20559;SDS011;10438;51.454;6.718;2022-09-06T14:16:36;3.67;;;1.30;;
20559;SDS011;10438;51.454;6.718;2022-09-06T14:19:02;3.03;;;1.30;;
20559;SDS011;10438;51.454;6.718;2022-09-06T14:21:28;6.60;;;2.08;;
20559;SDS011;10438;51.454;6.718;2022-09-06T14:23:54;4.20;;;1.65;;
20559;SDS011;10438;51.454;6.718;2022-09-06T14:26:20;6.55;;;1.88;;
20559;SDS011;10438;51.454;6.718;2022-09-06T14:28:47;5.18;;;1.45;;
20559;SDS011;10438;51.454;6.718;2022-09-06T14:31:17;5.78;;;1.33;;
20559;SDS011;10438;51.454;6.718;2022-09-06T14:33:47;2.75;;;1.25;;
20559;SDS011;10438;51.454;6.718;2022-09-06T14:36:14;3.80;;;1.70;;
20559;SDS011;10438;51.454;6.718;2022-09-06T14:38:43;4.25;;;1.30;;
20559;SDS011;10438;51.454;6.718;2022-09-06T14:41:10;3.10;;;1.20;;
20559;SDS011;10438;51.454;6.718;2022-09-06T14:43:38;4.22;;;1.50;;
20559;SDS011;10438;51.454;6.718;2022-09-06T14:46:06;4.25;;;1.40;;
20559;SDS011;10438;51.454;6.718;2022-09-06T14:48:38;6.57;;;1.30;;
20559;SDS011;10438;51.454;6.718;2022-09-06T14:51:08;4.30;;;1.40;;
20559;SDS011;10438;51.454;6.718;2022-09-06T14:53:36;4.45;;;1.30;;
20559;SDS011;10438;51.454;6.718;2022-09-06T14:56:03;4.70;;;1.50;;
20559;SDS011;10438;51.454;6.718;2022-09-06T14:58:33;4.15;;;1.40;;
20559;SDS011;10438;51.454;6.718;2022-09-06T15:01:05;6.10;;;1.30;;
20559;SDS011;10438;51.454;6.718;2022-09-06T15:03:39;5.88;;;1.55;;
20559;SDS011;10438;51.454;6.718;2022-09-06T15:06:05;3.53;;;1.30;;
20559;SDS011;10438;51.454;6.718;2022-09-06T15:08:32;4.45;;;1.42;;
20559;SDS011;10438;51.454;6.718;2022-09-06T15:10:57;4.18;;;1.40;;
20559;SDS011;10438;51.454;6.718;2022-09-06T15:13:24;3.85;;;1.55;;
20559;SDS011;10438;51.454;6.718;2022-09-06T15:15:50;3.17;;;1.48;;
20559;SDS011;10438;51.454;6.718;2022-09-06T15:18:17;5.85;;;1.55;;
20559;SDS011;10438;51.454;6.718;2022-09-06T15:20:42;3.10;;;1.50;;
20559;SDS011;10438;51.454;6.718;2022-09-06T15:23:08;5.65;;;1.52;;
20559;SDS011;10438;51.454;6.718;2022-09-06T15:25:34;7.10;;;1.52;;
20559;SDS011;10438;51.454;6.718;2022-09-06T15:28:00;3.72;;;1.42;;
20559;SDS011;10438;51.454;6.718;2022-09-06T15:30:26;5.85;;;1.63;;
20559;SDS011;10438;51.454;6.718;2022-09-06T15:32:51;5.88;;;1.98;;
20559;SDS011;10438;51.454;6.718;2022-09-06T15:35:17;3.63;;;1.60;;
20559;SDS011;10438;51.454;6.718;2022-09-06T15:37:43;5.93;;;1.75;;
20559;SDS011;10438;51.454;6.718;2022-09-06T15:40:09;6.18;;;1.63;;
20559;SDS011;10438;51.454;6.718;2022-09-06T15:42:35;3.97;;;1.60;;
20559;SDS011;10438;51.454;6.718;2022-09-06T15:45:00;6.18;;;1.65;;
20559;SDS011;10438;51.454;6.718;2022-09-06T15:47:26;3.95;;;1.48;;
20559;SDS011;10438;51.454;6.718;2022-09-06T15:49:52;8.10;;;1.42;;
20559;SDS011;10438;51.454;6.718;2022-09-06T15:52:17;6.03;;;1.77;;
20559;SDS011;10438;51.454;6.718;2022-09-06T15:54:43;4.90;;;1.58;;
20559;SDS011;10438;51.454;6.718;2022-09-06T15:57:27;5.50;;;1.70;;
20559;SDS011;10438;51.454;6.718;2022-09-06T15:59:52;7.75;;;1.67;;
20559;SDS011;10438;51.454;6.718;2022-09-06T16:02:19;5.68;;;1.20;;
20559;SDS011;10438;51.454;6.718;2022-09-06T16:04:45;4.88;;;1.33;;
20559;SDS011;10438;51.454;6.718;2022-09-06T16:07:10;5.28;;;1.30;;
20559;SDS011;10438;51.454;6.718;2022-09-06T16:09:36;7.47;;;1.30;;
20559;SDS011;10438;51.454;6.718;2022-09-06T16:12:02;4.28;;;1.40;;
20559;SDS011;10438;51.454;6.718;2022-09-06T16:14:28;5.00;;;1.40;;
20559;SDS011;10438;51.454;6.718;2022-09-06T16:16:54;4.60;;;1.40;;
20559;SDS011;10438;51.454;6.718;2022-09-06T16:19:20;14.38;;;10.18;;
20559;SDS011;10438;51.454;6.718;2022-09-06T16:21:45;6.00;;;3.10;;
20559;SDS011;10438;51.454;6.718;2022-09-06T16:24:11;5.97;;;1.50;;
20559;SDS011;10438;51.454;6.718;2022-09-06T16:26:39;4.28;;;1.40;;
20559;SDS011;10438;51.454;6.718;2022-09-06T16:29:06;7.35;;;1.23;;
20559;SDS011;10438;51.454;6.718;2022-09-06T16:31:33;4.38;;;1.60;;
20559;SDS011;10438;51.454;6.718;2022-09-06T16:33:59;4.78;;;2.00;;
20559;SDS011;10438;51.454;6.718;2022-09-06T16:36:25;7.53;;;1.60;;
20559;SDS011;10438;51.454;6.718;2022-09-06T16:38:52;4.32;;;1.52;;
20559;SDS011;10438;51.454;6.718;2022-09-06T16:41:20;7.25;;;1.80;;
20559;SDS011;10438;51.454;6.718;2022-09-06T16:43:47;3.88;;;1.60;;
20559;SDS011;10438;51.454;6.718;2022-09-06T16:46:13;3.85;;;1.70;;
20559;SDS011;10438;51.454;6.718;2022-09-06T16:48:39;7.93;;;1.73;;
20559;SDS011;10438;51.454;6.718;2022-09-06T16:51:16;5.75;;;1.85;;
20559;SDS011;10438;51.454;6.718;2022-09-06T16:53:43;4.88;;;1.52;;